createdAt,value
2023-02-17T00:01:29.993Z,4.60
2023-02-17T00:04:03.365Z,4.25
2023-02-17T00:06:34.474Z,2.08
2023-02-17T00:09:04.276Z,5.25
2023-02-17T00:11:33.170Z,4.93
2023-02-17T00:14:02.226Z,5.82
2023-02-17T00:16:35.725Z,8.77
2023-02-17T00:19:24.968Z,5.93
2023-02-17T00:21:58.038Z,3.55
2023-02-17T00:24:34.527Z,5.47
2023-02-17T00:27:04.265Z,7.40
2023-02-17T00:29:34.344Z,6.25
2023-02-17T00:32:06.467Z,3.42
2023-02-17T00:34:35.704Z,6.72
2023-02-17T00:37:05.383Z,5.47
2023-02-17T00:39:39.225Z,4.20
2023-02-17T00:42:10.572Z,6.53
2023-02-17T00:44:42.182Z,3.78
2023-02-17T00:47:14.320Z,5.20
2023-02-17T00:49:45.470Z,3.38
2023-02-17T00:52:21.978Z,6.00
2023-02-17T00:54:56.360Z,5.95
2023-02-17T00:57:27.756Z,8.70
2023-02-17T00:59:59.279Z,8.60
2023-02-17T01:02:34.741Z,5.97
2023-02-17T01:05:06.279Z,5.82
2023-02-17T01:07:35.042Z,6.90
2023-02-17T01:10:06.874Z,8.85
2023-02-17T01:12:38.881Z,6.93
2023-02-17T01:15:11.584Z,7.32
2023-02-17T01:17:45.835Z,5.43
2023-02-17T01:20:17.502Z,7.00
2023-02-17T01:22:50.393Z,7.28
2023-02-17T01:25:22.214Z,7.43
2023-02-17T01:27:50.973Z,9.70
2023-02-17T01:30:22.858Z,8.88
2023-02-17T01:32:54.661Z,8.85
2023-02-17T01:35:27.815Z,9.07
2023-02-17T01:37:57.364Z,7.57
2023-02-17T01:40:30.957Z,6.95
2023-02-17T01:42:59.689Z,8.73
2023-02-17T01:45:36.058Z,9.65
2023-02-17T01:48:17.615Z,8.98
2023-02-17T01:51:07.617Z,7.68
2023-02-17T01:53:40.287Z,7.68
2023-02-17T01:56:12.771Z,8.80
2023-02-17T01:58:52.656Z,7.25
2023-02-17T02:01:27.721Z,6.22
2023-02-17T02:04:01.401Z,6.47
2023-02-17T02:06:39.987Z,9.07
2023-02-17T02:09:22.528Z,9.60
2023-02-17T02:12:00.546Z,8.13
2023-02-17T02:14:35.378Z,8.57
2023-02-17T02:17:25.877Z,8.05
2023-02-17T02:20:15.123Z,11.40
2023-02-17T02:23:33.784Z,8.10
2023-02-17T02:26:37.735Z,12.18
2023-02-17T02:29:46.394Z,7.05
2023-02-17T02:32:40.405Z,8.63
2023-02-17T02:35:16.904Z,7.95
2023-02-17T02:38:13.589Z,10.82
2023-02-17T02:40:51.003Z,9.23
2023-02-17T02:43:24.350Z,9.18
2023-02-17T02:45:56.282Z,9.05
2023-02-17T02:48:25.915Z,12.98
2023-02-17T02:51:17.929Z,9.07
2023-02-17T02:53:58.157Z,11.77
2023-02-17T02:56:42.936Z,11.43
2023-02-17T02:59:28.585Z,8.80
2023-02-17T03:02:20.027Z,13.82
2023-02-17T03:05:19.510Z,14.68
2023-02-17T03:08:05.791Z,11.30
2023-02-17T03:10:35.618Z,12.52
2023-02-17T03:13:07.455Z,12.77
2023-02-17T03:15:41.394Z,13.35
2023-02-17T03:18:10.389Z,11.13
2023-02-17T03:21:00.798Z,12.30
2023-02-17T03:23:34.117Z,11.60
2023-02-17T03:26:03.245Z,14.95
2023-02-17T03:28:32.582Z,16.98
2023-02-17T03:31:01.591Z,14.75
2023-02-17T03:33:35.340Z,12.02
2023-02-17T03:36:07.022Z,12.95
2023-02-17T03:38:40.685Z,12.98
2023-02-17T03:41:12.614Z,13.10
2023-02-17T03:43:41.524Z,14.05
2023-02-17T03:46:14.696Z,13.23
2023-02-17T03:48:46.057Z,15.07
2023-02-17T03:51:20.650Z,11.75
2023-02-17T03:53:52.728Z,11.70
2023-02-17T03:56:23.849Z,11.38
2023-02-17T03:58:55.277Z,11.45
2023-02-17T04:01:25.073Z,9.50
2023-02-17T04:03:54.117Z,13.15
2023-02-17T04:06:23.757Z,13.48
2023-02-17T04:08:52.535Z,10.07
2023-02-17T04:11:24.612Z,16.15
2023-02-17T04:13:53.594Z,15.15
2023-02-17T04:16:22.570Z,13.40
2023-02-17T04:18:56.381Z,13.18
2023-02-17T04:21:25.767Z,13.25
2023-02-17T04:23:57.279Z,14.30
2023-02-17T04:26:28.733Z,12.07
2023-02-17T04:29:03.984Z,13.75
2023-02-17T04:31:35.524Z,11.55
2023-02-17T04:34:07.891Z,13.18
2023-02-17T04:36:42.894Z,13.05
2023-02-17T04:39:13.159Z,10.40
2023-02-17T04:41:44.528Z,12.68
2023-02-17T04:44:15.866Z,14.32
2023-02-17T04:46:51.185Z,13.07
2023-02-17T04:49:20.216Z,13.52
2023-02-17T04:51:49.648Z,14.82
2023-02-17T04:54:18.547Z,12.52
2023-02-17T04:56:50.087Z,12.52
2023-02-17T04:59:19.089Z,16.15
2023-02-17T05:01:48.108Z,14.75
2023-02-17T05:04:17.031Z,12.82
2023-02-17T05:06:48.147Z,17.05
2023-02-17T05:09:21.457Z,15.60
2023-02-17T05:11:52.696Z,14.82
2023-02-17T05:14:22.018Z,16.30
2023-02-17T05:16:50.981Z,18.75
2023-02-17T05:19:19.825Z,21.13
2023-02-17T05:21:51.940Z,18.33
2023-02-17T05:24:23.443Z,25.27
2023-02-17T05:26:52.146Z,24.05
2023-02-17T05:29:21.163Z,28.40
2023-02-17T05:31:50.128Z,25.17
2023-02-17T05:34:19.324Z,25.15
2023-02-17T05:36:48.447Z,26.83
2023-02-17T05:39:17.681Z,28.10
2023-02-17T05:41:49.585Z,25.08
2023-02-17T05:44:19.636Z,30.65
2023-02-17T05:46:50.714Z,29.33
2023-02-17T05:49:19.465Z,31.73
2023-02-17T05:51:48.932Z,27.75
2023-02-17T05:54:20.999Z,30.15
2023-02-17T05:56:50.130Z,29.52
2023-02-17T05:59:21.639Z,32.83
2023-02-17T06:01:50.593Z,39.45
2023-02-17T06:04:19.822Z,38.33
2023-02-17T06:06:48.784Z,35.00
2023-02-17T06:09:22.335Z,35.80
2023-02-17T06:11:53.894Z,30.90
2023-02-17T06:14:25.079Z,37.67
2023-02-17T06:16:56.327Z,39.00
2023-02-17T06:19:25.212Z,33.47
2023-02-17T06:21:57.566Z,32.17
2023-02-17T06:24:31.695Z,34.17
2023-02-17T06:27:03.077Z,34.13
2023-02-17T06:29:31.931Z,35.88
2023-02-17T06:32:01.016Z,34.70
2023-02-17T06:34:29.907Z,36.42
2023-02-17T06:36:58.939Z,31.42
2023-02-17T06:39:30.754Z,34.58
2023-02-17T06:42:01.807Z,33.40
2023-02-17T06:44:31.672Z,35.45
2023-02-17T06:47:00.661Z,32.20
2023-02-17T06:49:29.583Z,33.70
2023-02-17T06:51:58.319Z,30.73
2023-02-17T06:54:27.362Z,31.10
2023-02-17T06:56:56.186Z,39.10
2023-02-17T06:59:24.982Z,31.73
2023-02-17T07:01:56.299Z,34.50
2023-02-17T07:04:25.848Z,32.53
2023-02-17T07:06:59.694Z,33.47
2023-02-17T07:09:31.107Z,32.80
2023-02-17T07:12:00.234Z,32.78
2023-02-17T07:14:29.240Z,33.63
2023-02-17T07:16:58.086Z,32.60
2023-02-17T07:19:30.289Z,29.25
2023-02-17T07:21:59.589Z,36.45
2023-02-17T07:24:34.625Z,35.80
2023-02-17T07:27:05.349Z,33.97
2023-02-17T07:29:34.189Z,37.53
2023-02-17T07:32:03.012Z,31.92
2023-02-17T07:34:35.145Z,36.67
2023-02-17T07:37:03.983Z,36.72
2023-02-17T07:39:36.100Z,33.20
2023-02-17T07:42:07.260Z,34.85
2023-02-17T07:44:36.330Z,36.53
2023-02-17T07:47:05.655Z,32.60
2023-02-17T07:49:40.012Z,40.50
2023-02-17T07:52:10.393Z,35.80
2023-02-17T07:54:39.619Z,32.15
2023-02-17T07:57:13.811Z,43.65
2023-02-17T07:59:46.554Z,32.13
2023-02-17T08:02:18.686Z,35.97
2023-02-17T08:04:51.630Z,35.63
2023-02-17T08:07:22.974Z,31.85
2023-02-17T08:10:13.752Z,33.75
2023-02-17T08:13:00.778Z,32.38
2023-02-17T08:15:32.824Z,32.17
2023-02-17T08:18:24.381Z,30.10
2023-02-17T08:20:56.664Z,33.70
2023-02-17T08:23:30.407Z,33.42
2023-02-17T08:26:02.676Z,30.52
2023-02-17T08:28:33.080Z,30.95
2023-02-17T08:31:04.667Z,32.13
2023-02-17T08:33:36.596Z,40.55
2023-02-17T08:36:09.006Z,29.23
2023-02-17T08:38:38.236Z,31.30
2023-02-17T08:41:20.910Z,33.38
2023-02-17T08:43:50.831Z,32.83
2023-02-17T08:46:20.951Z,35.22
2023-02-17T08:48:50.446Z,30.05
2023-02-17T08:51:26.641Z,28.40
2023-02-17T08:53:59.264Z,29.90
2023-02-17T08:56:32.352Z,30.48
2023-02-17T08:59:02.482Z,27.52
2023-02-17T09:01:33.513Z,30.10
2023-02-17T09:04:05.750Z,30.70
2023-02-17T09:06:42.340Z,29.52
2023-02-17T09:09:16.771Z,24.73
2023-02-17T09:11:50.160Z,29.85
2023-02-17T09:14:24.614Z,28.58
2023-02-17T09:16:57.787Z,27.75
2023-02-17T09:19:34.985Z,28.33
2023-02-17T09:22:06.268Z,29.95
2023-02-17T09:24:40.626Z,28.13
2023-02-17T09:27:14.686Z,25.88
2023-02-17T09:29:48.835Z,27.20
2023-02-17T09:32:25.530Z,27.08
2023-02-17T09:34:55.129Z,26.60
2023-02-17T09:37:25.330Z,32.92
2023-02-17T09:39:57.527Z,29.58
2023-02-17T09:42:32.935Z,27.90
2023-02-17T09:45:18.424Z,29.80
2023-02-17T09:47:52.835Z,34.58
2023-02-17T09:50:49.925Z,28.88
2023-02-17T09:53:35.424Z,29.70
2023-02-17T09:56:12.733Z,31.38
2023-02-17T09:58:52.549Z,29.15
2023-02-17T10:01:29.502Z,29.60
2023-02-17T10:04:46.389Z,31.48
2023-02-17T10:07:37.679Z,26.77
2023-02-17T10:10:12.496Z,30.02
2023-02-17T10:13:03.354Z,30.05
2023-02-17T10:15:45.599Z,30.58
2023-02-17T10:18:31.090Z,26.20
2023-02-17T10:21:13.284Z,29.65
2023-02-17T10:23:42.618Z,30.42
2023-02-17T10:26:46.117Z,30.83
2023-02-17T10:29:53.725Z,31.42
2023-02-17T10:32:27.690Z,37.13
2023-02-17T10:35:40.814Z,32.75
2023-02-17T10:38:53.407Z,29.85
2023-02-17T10:41:32.145Z,33.33
2023-02-17T10:44:07.619Z,35.88
2023-02-17T10:46:42.963Z,31.80
2023-02-17T10:49:42.511Z,31.17
2023-02-17T10:52:21.327Z,28.45
2023-02-17T10:55:22.352Z,28.77
2023-02-17T10:58:08.934Z,29.75
2023-02-17T11:03:27.858Z,25.40
2023-02-17T11:06:02.389Z,30.50
2023-02-17T11:08:45.243Z,27.98
2023-02-17T11:11:24.739Z,31.27
2023-02-17T11:14:09.813Z,28.42
2023-02-17T11:16:58.622Z,31.85
2023-02-17T11:19:35.254Z,32.42
2023-02-17T11:22:27.697Z,28.83
2023-02-17T11:25:04.350Z,26.17
2023-02-17T11:27:33.765Z,27.40
2023-02-17T11:30:15.476Z,29.33
2023-02-17T11:32:51.422Z,28.35
2023-02-17T11:35:39.791Z,29.70
2023-02-17T11:38:26.672Z,28.83
2023-02-17T11:41:08.774Z,30.23
2023-02-17T11:43:51.468Z,27.00
2023-02-17T11:46:33.345Z,23.70
2023-02-17T11:49:14.129Z,27.98
2023-02-17T11:51:52.144Z,26.13
2023-02-17T11:54:37.476Z,23.83
2023-02-17T11:57:36.151Z,30.25
2023-02-17T12:00:23.252Z,28.67
2023-02-17T12:03:02.102Z,27.23
2023-02-17T12:06:03.726Z,28.42
2023-02-17T12:08:58.827Z,26.98
2023-02-17T12:12:01.579Z,27.02
2023-02-17T12:15:08.242Z,28.42
2023-02-17T12:18:06.695Z,32.05
2023-02-17T12:20:46.803Z,33.33
2023-02-17T12:23:48.681Z,32.50
2023-02-17T12:26:33.246Z,30.10
2023-02-17T12:29:08.198Z,30.60
2023-02-17T12:32:02.522Z,33.05
2023-02-17T12:34:39.800Z,29.30
2023-02-17T12:37:19.213Z,28.40
2023-02-17T12:39:58.456Z,26.88
2023-02-17T12:42:37.988Z,25.40
2023-02-17T12:45:21.690Z,31.55
2023-02-17T12:48:00.453Z,26.52
2023-02-17T12:50:55.934Z,28.08
2023-02-17T12:53:30.137Z,31.75
2023-02-17T12:56:03.195Z,28.27
2023-02-17T12:58:36.928Z,31.23
2023-02-17T13:01:17.541Z,26.52
2023-02-17T13:03:49.467Z,32.33
2023-02-17T13:06:33.233Z,24.02
2023-02-17T13:09:28.706Z,30.73
2023-02-17T13:12:24.979Z,28.38
2023-02-17T13:15:01.945Z,31.75
2023-02-17T13:17:52.502Z,33.05
2023-02-17T13:20:29.117Z,29.42
2023-02-17T13:23:06.853Z,30.25
2023-02-17T13:25:41.261Z,30.90
2023-02-17T13:28:34.955Z,31.50
2023-02-17T13:31:22.412Z,32.25
2023-02-17T13:33:58.729Z,28.95
2023-02-17T13:36:33.602Z,32.58
2023-02-17T13:39:30.797Z,36.20
2023-02-17T13:44:47.063Z,32.20
2023-02-17T13:47:22.194Z,33.55
2023-02-17T13:49:57.444Z,32.85
2023-02-17T13:52:31.670Z,33.35
2023-02-17T13:55:06.406Z,34.72
2023-02-17T13:57:42.706Z,31.38
2023-02-17T14:00:22.937Z,33.88
2023-02-17T14:02:56.803Z,34.05
2023-02-17T14:05:38.490Z,34.47
2023-02-17T14:08:29.720Z,31.17
2023-02-17T14:11:13.259Z,30.92
2023-02-17T14:13:46.502Z,31.83
2023-02-17T14:16:39.492Z,36.35
2023-02-17T14:19:20.225Z,28.92
2023-02-17T14:22:05.040Z,34.95
2023-02-17T14:24:37.713Z,29.30
2023-02-17T14:27:14.642Z,31.00
2023-02-17T14:29:51.201Z,29.70
2023-02-17T14:32:35.642Z,29.08
2023-02-17T14:35:11.069Z,30.35
2023-02-17T14:37:43.889Z,29.02
2023-02-17T14:40:18.436Z,31.00
2023-02-17T14:42:53.719Z,30.00
2023-02-17T14:45:27.949Z,28.63
2023-02-17T14:47:58.182Z,31.02
2023-02-17T14:50:44.334Z,30.83
2023-02-17T14:53:33.759Z,34.88
2023-02-17T14:56:24.489Z,28.42
2023-02-17T14:58:54.518Z,30.98
2023-02-17T15:01:26.148Z,31.20
2023-02-17T15:03:55.694Z,29.77
2023-02-17T15:06:37.162Z,30.85
2023-02-17T15:09:12.290Z,30.10
2023-02-17T15:11:46.152Z,30.65
2023-02-17T15:14:25.145Z,26.70
2023-02-17T15:16:59.436Z,28.40
2023-02-17T15:19:37.070Z,26.83
2023-02-17T15:22:17.349Z,30.90
2023-02-17T15:24:49.104Z,27.65
2023-02-17T15:27:18.511Z,29.73
2023-02-17T15:29:55.714Z,30.55
2023-02-17T15:32:25.159Z,31.13
2023-02-17T15:35:03.618Z,31.75
2023-02-17T15:37:35.306Z,30.45
2023-02-17T15:40:08.100Z,29.10
2023-02-17T15:42:37.828Z,30.23
2023-02-17T15:45:18.847Z,34.42
2023-02-17T15:47:52.371Z,33.53
2023-02-17T15:52:54.553Z,31.50
2023-02-17T15:55:32.845Z,31.83
2023-02-17T15:58:17.885Z,33.75
2023-02-17T16:00:51.892Z,34.90
2023-02-17T16:03:26.575Z,27.70
2023-02-17T16:05:58.923Z,29.40
2023-02-17T16:08:30.757Z,34.28
2023-02-17T16:11:06.035Z,31.27
2023-02-17T16:13:35.367Z,31.08
2023-02-17T16:16:05.163Z,31.45
2023-02-17T16:18:37.327Z,34.13
2023-02-17T16:21:06.781Z,32.45
2023-02-17T16:23:41.655Z,36.92
2023-02-17T16:26:31.321Z,31.48
2023-02-17T16:29:18.161Z,33.08
2023-02-17T16:31:52.885Z,32.15
2023-02-17T16:34:26.488Z,35.28
2023-02-17T16:37:00.374Z,31.60
2023-02-17T16:39:32.769Z,35.75
2023-02-17T16:42:05.097Z,32.88
2023-02-17T16:44:34.376Z,31.63
2023-02-17T16:47:12.130Z,33.22
2023-02-17T16:49:47.571Z,32.00
2023-02-17T16:52:28.395Z,28.05
2023-02-17T16:55:05.945Z,33.08
2023-02-17T16:57:42.095Z,33.38
2023-02-17T17:00:22.526Z,39.92
2023-02-17T17:02:52.497Z,35.85
2023-02-17T17:05:28.522Z,30.20
2023-02-17T17:10:50.072Z,30.52
2023-02-17T17:13:22.418Z,34.75
2023-02-17T17:15:53.691Z,34.03
2023-02-17T17:18:27.498Z,32.35
2023-02-17T17:20:56.635Z,36.05
2023-02-17T17:23:27.622Z,33.83
2023-02-17T17:26:03.012Z,31.33
2023-02-17T17:28:32.455Z,30.30
2023-02-17T17:31:03.537Z,30.05
2023-02-17T17:33:35.978Z,31.25
2023-02-17T17:36:16.821Z,28.38
2023-02-17T17:38:48.682Z,30.85
2023-02-17T17:41:18.706Z,29.38
2023-02-17T17:43:58.746Z,37.42
2023-02-17T17:46:32.694Z,28.90
2023-02-17T17:49:02.505Z,31.10
2023-02-17T17:51:33.199Z,31.33
2023-02-17T17:54:05.979Z,30.52
2023-02-17T17:56:40.731Z,33.80
2023-02-17T17:59:11.665Z,29.88
2023-02-17T18:01:45.548Z,34.05
2023-02-17T18:04:17.065Z,31.25
2023-02-17T18:06:56.461Z,37.22
2023-02-17T18:09:32.514Z,29.38
2023-02-17T18:12:09.231Z,35.63
2023-02-17T18:14:41.050Z,32.33
2023-02-17T18:17:12.586Z,36.83
2023-02-17T18:19:44.798Z,32.85
2023-02-17T18:22:18.464Z,34.67
2023-02-17T18:24:53.852Z,40.72
2023-02-17T18:27:23.517Z,33.88
2023-02-17T18:29:59.845Z,35.20
2023-02-17T18:32:33.903Z,35.10
2023-02-17T18:35:06.361Z,35.17
2023-02-17T18:37:37.567Z,41.45
2023-02-17T18:40:13.167Z,36.45
2023-02-17T18:42:49.261Z,36.80
2023-02-17T18:45:22.193Z,33.85
2023-02-17T18:47:59.082Z,34.97
2023-02-17T18:50:36.677Z,36.25
2023-02-17T18:53:10.375Z,32.75
2023-02-17T18:55:40.855Z,30.35
2023-02-17T18:58:15.278Z,37.00
2023-02-17T19:00:50.918Z,34.28
2023-02-17T19:03:25.452Z,34.20
2023-02-17T19:05:58.207Z,33.85
2023-02-17T19:08:30.538Z,31.00
2023-02-17T19:10:59.456Z,35.10
2023-02-17T19:13:28.529Z,39.17
2023-02-17T19:16:13.249Z,34.92
2023-02-17T19:18:46.871Z,36.33
2023-02-17T19:21:16.807Z,34.95
2023-02-17T19:23:46.517Z,32.58
2023-02-17T19:26:20.365Z,34.80
2023-02-17T19:28:52.052Z,34.00
2023-02-17T19:31:21.606Z,30.90
2023-02-17T19:33:55.656Z,32.42
2023-02-17T19:36:25.224Z,36.55
2023-02-17T19:38:59.934Z,31.23
2023-02-17T19:41:35.996Z,33.45
2023-02-17T19:44:13.631Z,37.13
2023-02-17T19:46:42.728Z,37.95
2023-02-17T19:49:17.421Z,35.97
2023-02-17T19:51:50.356Z,29.92
2023-02-17T19:54:21.944Z,33.67
2023-02-17T19:56:51.463Z,36.03
2023-02-17T19:59:20.642Z,33.22
2023-02-17T20:01:52.453Z,34.65
2023-02-17T20:04:21.526Z,34.00
2023-02-17T20:06:53.737Z,39.83
2023-02-17T20:09:24.430Z,32.85
2023-02-17T20:11:53.720Z,32.28
2023-02-17T20:14:28.054Z,33.33
2023-02-17T20:17:01.431Z,30.50
2023-02-17T20:19:33.154Z,32.42
2023-02-17T20:22:06.330Z,29.00
2023-02-17T20:24:38.047Z,30.58
2023-02-17T20:27:07.162Z,29.05
2023-02-17T20:29:36.872Z,28.90
2023-02-17T20:32:11.358Z,28.20
2023-02-17T20:34:43.341Z,31.92
2023-02-17T20:37:12.524Z,25.40
2023-02-17T20:39:43.903Z,30.75
2023-02-17T20:42:15.504Z,26.38
2023-02-17T20:44:51.843Z,28.67
2023-02-17T20:47:22.185Z,27.98
2023-02-17T20:49:54.203Z,26.30
2023-02-17T20:52:25.596Z,29.02
2023-02-17T20:54:55.307Z,26.90
2023-02-17T20:57:25.368Z,26.20
2023-02-17T21:00:02.434Z,26.00
2023-02-17T21:02:33.918Z,30.65
2023-02-17T21:05:06.962Z,25.50
2023-02-17T21:07:40.731Z,25.83
2023-02-17T21:10:15.731Z,30.50
2023-02-17T21:12:50.125Z,29.20
2023-02-17T21:15:21.983Z,29.52
2023-02-17T21:17:51.654Z,25.38
2023-02-17T21:20:23.144Z,31.80
2023-02-17T21:22:55.368Z,27.35
2023-02-17T21:25:30.015Z,27.33
2023-02-17T21:28:06.719Z,25.55
2023-02-17T21:30:41.602Z,25.48
2023-02-17T21:33:10.643Z,24.60
2023-02-17T21:35:41.952Z,22.85
2023-02-17T21:38:15.915Z,27.45
2023-02-17T21:40:45.011Z,23.45
2023-02-17T21:43:32.840Z,26.50
2023-02-17T21:46:02.155Z,28.27
2023-02-17T21:48:35.925Z,29.55
2023-02-17T21:51:14.272Z,28.10
2023-02-17T21:53:49.158Z,27.77
2023-02-17T21:56:20.906Z,23.75
2023-02-17T21:58:56.759Z,27.55
2023-02-17T22:01:33.363Z,27.38
2023-02-17T22:04:03.233Z,24.27
2023-02-17T22:06:35.896Z,24.45
2023-02-17T22:09:08.476Z,25.52
2023-02-17T22:11:43.730Z,27.05
2023-02-17T22:16:48.083Z,26.02
2023-02-17T22:19:25.264Z,25.40
2023-02-17T22:21:57.552Z,23.55
2023-02-17T22:24:29.226Z,24.25
2023-02-17T22:27:02.855Z,20.98
2023-02-17T22:29:32.447Z,25.30
2023-02-17T22:32:01.688Z,21.92
2023-02-17T22:34:30.655Z,23.45
2023-02-17T22:37:04.143Z,22.48
2023-02-17T22:39:33.518Z,21.63
2023-02-17T22:42:03.370Z,22.15
2023-02-17T22:44:33.114Z,21.92
2023-02-17T22:47:04.379Z,22.88
2023-02-17T22:49:38.735Z,22.20
2023-02-17T22:52:08.206Z,19.95
2023-02-17T22:54:41.451Z,19.10
2023-02-17T22:57:13.069Z,22.08
2023-02-17T22:59:42.039Z,18.83
2023-02-17T23:02:16.876Z,20.42
2023-02-17T23:04:45.974Z,17.60
2023-02-17T23:07:20.610Z,21.60
2023-02-17T23:09:51.756Z,21.20
2023-02-17T23:12:27.424Z,21.15
2023-02-17T23:14:59.059Z,21.02
2023-02-17T23:17:28.095Z,18.42
2023-02-17T23:19:57.117Z,21.10
2023-02-17T23:22:26.061Z,20.23
2023-02-17T23:25:03.287Z,19.52
2023-02-17T23:27:34.340Z,21.88
2023-02-17T23:30:12.305Z,19.60
2023-02-17T23:32:41.248Z,18.10
2023-02-17T23:35:11.884Z,20.60
2023-02-17T23:37:42.219Z,20.80
2023-02-17T23:40:12.216Z,23.58
2023-02-17T23:42:41.594Z,22.05
2023-02-17T23:45:11.025Z,20.27
2023-02-17T23:47:46.244Z,18.90
2023-02-17T23:50:17.011Z,21.48
2023-02-17T23:52:46.035Z,23.98
2023-02-17T23:55:15.331Z,19.50
2023-02-17T23:57:47.083Z,26.27
